Time;durP1;ratioP1;P1;durP2;ratioP2;P2;SDS_P1;SDS_P2;PMS_P1;PMS_P2;Temp;Humidity;BMP_temperature;BMP_pressure;BME280_temperature;BME280_humidity;BME280_pressure;Samples;Min_cycle;Max_cycle;Signal;HPM_P1;HPM_P2
2023/04/06 00:02:19;;;;;;;2.95;0.90;;;;;;;30.98;34.80;99461.34;7394559;19;20018;-80
2023/04/06 00:04:45;;;;;;;3.38;1.30;;;;;;;31.05;34.32;99455.34;7396555;19;20018;-80
2023/04/06 00:07:11;;;;;;;6.95;1.45;;;;;;;31.03;34.42;99452.34;7392920;19;20014;-80
2023/04/06 00:09:38;;;;;;;0.77;0.63;;;;;;;31.05;34.76;99455.34;7394447;19;20019;-80
2023/04/06 00:12:04;;;;;;;1.60;0.60;;;;;;;30.85;34.86;99456.97;7394016;19;20025;-80
2023/04/06 00:14:30;;;;;;;0.88;0.88;;;;;;;30.87;34.42;99437.00;7393140;19;20091;-80
2023/04/06 00:16:57;;;;;;;3.28;1.40;;;;;;;30.77;34.82;99445.00;7392099;19;20367;-80
2023/04/06 00:19:23;;;;;;;7.28;1.33;;;;;;;30.93;34.48;99437.34;7393306;19;20369;-79
2023/04/06 00:21:49;;;;;;;0.68;0.52;;;;;;;30.91;34.68;99431.47;7392065;19;20013;-80
2023/04/06 00:24:15;;;;;;;1.27;1.00;;;;;;;23.40;60.61;99446.25;7397798;19;20018;-80
2023/04/06 00:26:41;;;;;;;0.85;0.57;;;;;;;20.60;83.23;99439.25;7393511;19;20023;-80
2023/04/06 00:29:07;;;;;;;5.30;1.17;;;;;;;27.67;47.63;99435.63;7391464;19;20015;-80
2023/04/06 00:31:34;;;;;;;2.92;0.82;;;;;;;30.48;40.49;99425.28;7393790;19;20019;-80
2023/04/06 00:34:00;;;;;;;2.53;1.27;;;;;;;30.87;38.52;99425.50;7394577;19;20022;-80
2023/04/06 00:36:26;;;;;;;4.85;1.20;;;;;;;31.21;37.83;99423.88;7389297;19;20121;-79
2023/04/06 00:38:52;;;;;;;2.92;0.40;;;;;;;31.33;37.59;99419.59;7392176;19;20461;-80
2023/04/06 00:41:20;;;;;;;1.42;0.88;;;;;;;31.33;37.30;99419.59;7392555;19;20066;-80
2023/04/06 00:43:46;;;;;;;2.40;1.48;;;;;;;31.24;37.32;99411.13;7393473;19;20044;-80
2023/04/06 00:46:12;;;;;;;3.67;1.00;;;;;;;31.39;36.56;99416.31;7391257;19;20007;-80
2023/04/06 00:48:40;;;;;;;5.80;0.93;;;;;;;31.51;36.90;99416.28;7393433;19;20465;-80
2023/04/06 00:51:06;;;;;;;2.47;1.25;;;;;;;31.65;36.58;99405.56;7391894;19;20341;-80
2023/04/06 00:53:33;;;;;;;2.00;1.15;;;;;;;31.75;36.31;99411.91;7392546;19;20014;-80
2023/04/06 00:56:01;;;;;;;2.47;0.57;;;;;;;31.82;35.72;99405.84;7390019;19;20406;-80
2023/04/06 00:58:27;;;;;;;2.28;1.02;;;;;;;31.82;35.79;99402.19;7392342;19;20015;-80
2023/04/06 01:01:01;;;;;;;2.00;0.95;;;;;;;31.88;35.96;99402.56;7390618;19;20022;-80
2023/04/06 01:03:28;;;;;;;2.28;1.15;;;;;;;31.87;35.57;99396.03;7391007;19;20077;-80
2023/04/06 01:05:57;;;;;;;0.73;0.70;;;;;;;31.79;35.54;99400.59;7390046;19;20014;-81
2023/04/06 01:08:28;;;;;;;4.18;1.40;;;;;;;31.75;35.58;99385.97;7389876;19;20014;-80
2023/04/06 01:11:08;;;;;;;2.13;1.55;;;;;;;31.64;35.49;99389.69;7388846;19;20029;-80
2023/04/06 01:13:34;;;;;;;1.50;0.93;;;;;;;31.58;35.65;99386.47;7393140;19;20014;-81
2023/04/06 01:16:04;;;;;;;1.42;0.85;;;;;;;31.57;35.54;99379.19;7389016;19;20338;-83
2023/04/06 01:18:46;;;;;;;1.17;1.17;;;;;;;31.77;35.33;99383.94;7390912;19;20018;-83
2023/04/06 01:21:16;;;;;;;0.65;0.60;;;;;;;31.81;35.25;99377.69;7390070;19;20051;-83
2023/04/06 01:24:03;;;;;;;3.05;1.75;;;;;;;31.82;34.94;99371.28;7388483;19;20018;-83
2023/04/06 01:26:38;;;;;;;1.08;0.45;;;;;;;31.52;35.40;99378.22;7388795;19;20045;-83
2023/04/06 01:29:07;;;;;;;0.73;0.43;;;;;;;31.41;35.90;99374.03;7389226;19;20100;-82
2023/04/06 01:31:34;;;;;;;1.67;0.70;;;;;;;31.33;35.37;99373.53;7389812;19;20027;-83
2023/04/06 01:34:00;;;;;;;3.72;0.60;;;;;;;31.15;35.67;99366.75;7392840;19;20815;-83
2023/04/06 01:36:26;;;;;;;0.50;0.43;;;;;;;31.12;35.58;99359.34;7387543;19;20019;-82
2023/04/06 01:39:01;;;;;;;0.50;0.30;;;;;;;31.26;35.60;99363.06;7389120;19;20369;-84
2023/04/06 01:41:33;;;;;;;3.60;0.73;;;;;;;31.24;35.74;99360.06;7389602;19;20022;-82
2023/04/06 01:44:01;;;;;;;0.47;0.47;;;;;;;31.38;35.49;99357.97;7391881;19;20021;-83
2023/04/06 01:46:29;;;;;;;0.90;0.80;;;;;;;31.55;35.29;99353.19;7388768;19;20540;-83
2023/04/06 01:48:55;;;;;;;0.30;0.30;;;;;;;31.69;35.15;99346.06;7396777;19;20039;-81
2023/04/06 01:51:34;;;;;;;0.90;0.50;;;;;;;31.70;35.00;99346.81;7397065;19;20010;-83
2023/04/06 01:54:03;;;;;;;3.53;1.38;;;;;;;31.72;35.33;99349.81;7398804;19;20018;-81
2023/04/06 01:56:41;;;;;;;0.75;0.47;;;;;;;31.77;35.12;99343.63;7393754;19;20944;-81
2023/04/06 01:59:29;;;;;;;1.25;0.55;;;;;;;31.76;35.21;99344.25;7397590;19;20018;-82
2023/04/06 02:01:56;;;;;;;2.42;1.00;;;;;;;31.85;34.99;99335.44;7395115;19;20032;-81
2023/04/06 02:04:24;;;;;;;0.77;0.60;;;;;;;31.80;35.14;99336.59;7398383;19;20043;-81
2023/04/06 02:06:57;;;;;;;2.38;1.08;;;;;;;31.94;34.99;99331.66;7396576;19;20018;-81
2023/04/06 02:09:25;;;;;;;5.30;0.90;;;;;;;32.04;35.09;99331.44;7397908;19;20532;-81
2023/04/06 02:11:51;;;;;;;8.20;1.00;;;;;;;32.02;34.93;99326.31;7398097;19;20018;-81
2023/04/06 02:14:18;;;;;;;1.25;1.02;;;;;;;32.07;34.94;99327.28;7401438;19;20085;-81
2023/04/06 02:16:50;;;;;;;2.53;1.67;;;;;;;31.91;34.85;99326.38;7394572;19;20018;-81
2023/04/06 02:19:16;;;;;;;4.50;0.82;;;;;;;31.92;34.63;99322.13;7396418;19;20366;-81
2023/04/06 02:21:43;;;;;;;0.20;0.10;;;;;;;32.11;34.83;99321.72;7395355;19;20357;-81
2023/04/06 02:24:09;;;;;;;1.52;0.88;;;;;;;31.88;35.08;99321.91;7396892;19;20343;-81
2023/04/06 02:26:35;;;;;;;0.60;0.60;;;;;;;31.90;35.00;99316.97;7397037;19;20019;-81
2023/04/06 02:29:02;;;;;;;1.02;0.68;;;;;;;31.93;34.60;99309.19;7394606;19;20019;-81
2023/04/06 02:31:28;;;;;;;0.82;0.82;;;;;;;31.95;34.84;99306.44;7395928;19;20011;-81
2023/04/06 02:33:54;;;;;;;0.75;0.75;;;;;;;31.74;34.99;99309.59;7396785;19;20030;-81
2023/04/06 02:36:20;;;;;;;1.08;0.95;;;;;;;31.83;35.22;99308.66;7393239;19;20361;-81
2023/04/06 02:38:46;;;;;;;3.25;1.52;;;;;;;31.70;35.23;99306.50;7397515;19;20487;-81
2023/04/06 02:41:13;;;;;;;4.82;1.25;;;;;;;31.65;34.99;99304.78;7395498;19;20026;-81
2023/04/06 02:43:39;;;;;;;2.92;0.95;;;;;;;31.71;35.53;99307.97;7396635;19;20044;-82
2023/04/06 02:46:16;;;;;;;2.17;0.80;;;;;;;31.95;35.03;99300.69;7394990;19;20469;-82
2023/04/06 02:48:42;;;;;;;1.75;0.93;;;;;;;32.32;34.86;99304.09;7395415;19;20014;-82
2023/04/06 02:51:08;;;;;;;0.70;0.70;;;;;;;32.41;34.53;99303.13;7395374;19;20078;-82
2023/04/06 02:53:35;;;;;;;0.60;0.47;;;;;;;32.32;34.42;99295.44;7395944;19;20014;-83
2023/04/06 02:56:02;;;;;;;1.15;0.82;;;;;;;32.31;34.67;99285.31;7393013;19;20014;-83
2023/04/06 02:58:37;;;;;;;4.88;0.77;;;;;;;32.58;34.50;99279.53;7397366;19;20018;-82
2023/04/06 03:01:04;;;;;;;3.85;0.55;;;;;;;32.67;34.05;99295.84;7394131;19;20022;-82
2023/04/06 03:03:30;;;;;;;1.48;0.57;;;;;;;32.76;33.99;99294.13;7395258;19;20469;-82
2023/04/06 03:05:58;;;;;;;0.65;0.60;;;;;;;32.14;34.89;99295.25;7392934;19;20007;-82
2023/04/06 03:08:27;;;;;;;0.20;0.20;;;;;;;29.88;37.54;99295.13;7393694;19;20018;-82
2023/04/06 03:10:53;;;;;;;0.60;0.60;;;;;;;32.10;34.89;99288.50;7394181;19;20090;-81
2023/04/06 03:13:20;;;;;;;1.92;0.98;;;;;;;32.50;34.39;99293.53;7394936;19;20022;-81
2023/04/06 03:15:53;;;;;;;2.83;0.47;;;;;;;32.64;34.64;99288.47;7391909;19;20469;-82
2023/04/06 03:18:25;;;;;;;1.10;0.30;;;;;;;32.58;34.33;99285.28;7394655;19;20007;-81
2023/04/06 03:20:55;;;;;;;0.45;0.38;;;;;;;32.56;34.18;99279.44;7394153;19;20010;-81
2023/04/06 03:23:26;;;;;;;0.10;0.10;;;;;;;32.66;34.35;99276.31;7394247;19;20039;-81
2023/04/06 03:25:57;;;;;;;0.38;0.30;;;;;;;32.62;33.71;99271.06;7394063;19;20011;-82
2023/04/06 03:28:23;;;;;;;1.55;0.70;;;;;;;32.45;34.10;99262.22;7393340;19;20019;-82
2023/04/06 03:30:53;;;;;;;0.80;0.55;;;;;;;32.31;34.24;99270.91;7393775;19;20049;-81
2023/04/06 03:33:35;;;;;;;0.10;0.10;;;;;;;32.28;34.00;99260.66;7394589;19;20365;-82
2023/04/06 03:36:02;;;;;;;1.50;1.00;;;;;;;31.44;35.76;99265.50;7391948;19;20022;-82
2023/04/06 03:38:29;;;;;;;1.00;0.75;;;;;;;31.92;34.87;99259.47;7393165;19;20018;-82
2023/04/06 03:40:56;;;;;;;0.22;0.20;;;;;;;32.12;34.90;99251.16;7392611;19;20011;-82
2023/04/06 03:43:25;;;;;;;0.40;0.40;;;;;;;32.16;34.52;99254.28;7395175;19;20024;-81
2023/04/06 03:45:51;;;;;;;1.10;0.20;;;;;;;32.28;34.67;99245.50;7391909;19;20440;-82
2023/04/06 03:48:17;;;;;;;0.40;0.40;;;;;;;32.29;34.25;99244.88;7391071;19;20025;-82
2023/04/06 03:50:44;;;;;;;0.20;0.20;;;;;;;32.32;34.51;99234.16;7393469;19;20018;-82
2023/04/06 03:53:10;;;;;;;0.40;0.20;;;;;;;32.25;34.26;99232.38;7394036;19;20366;-82
2023/04/06 03:55:36;;;;;;;0.20;0.20;;;;;;;32.14;34.35;99226.09;7392630;19;20010;-81
2023/04/06 03:58:02;;;;;;;2.08;0.50;;;;;;;31.54;35.38;99230.75;7392865;19;20028;-82
2023/04/06 04:00:29;;;;;;;0.47;0.30;;;;;;;32.00;34.36;99230.38;7391751;19;20529;-82
2023/04/06 04:02:55;;;;;;;1.25;1.15;;;;;;;31.90;34.66;99221.19;7393319;19;20007;-81
2023/04/06 04:05:24;;;;;;;0.22;0.20;;;;;;;31.91;34.72;99226.28;7393004;19;20015;-81
2023/04/06 04:07:52;;;;;;;0.30;0.22;;;;;;;31.99;34.66;99223.09;7393334;19;20018;-81
2023/04/06 04:10:21;;;;;;;1.27;0.50;;;;;;;32.09;34.60;99227.28;7395752;19;20018;-81
2023/04/06 04:12:47;;;;;;;2.25;0.40;;;;;;;32.09;34.59;99215.00;7394217;19;20086;-81
2023/04/06 04:15:13;;;;;;;0.30;0.25;;;;;;;32.08;34.66;99227.91;7391441;19;20027;-81
2023/04/06 04:17:40;;;;;;;0.30;0.30;;;;;;;31.69;34.71;99230.13;7391505;19;20018;-81
2023/04/06 04:20:06;;;;;;;0.68;0.32;;;;;;;31.49;35.04;99234.81;7392844;19;20418;-81
2023/04/06 04:22:33;;;;;;;0.10;0.10;;;;;;;31.29;35.31;99235.19;7393993;19;20025;-81
2023/04/06 04:24:59;;;;;;;0.30;0.20;;;;;;;31.71;35.31;99238.88;7390573;19;20018;-81
2023/04/06 04:27:27;;;;;;;0.20;0.10;;;;;;;31.78;35.09;99237.81;7391671;19;20468;-82
2023/04/06 04:29:53;;;;;;;0.55;0.55;;;;;;;31.42;35.30;99219.34;7390094;19;20031;-81
2023/04/06 04:32:19;;;;;;;0.75;0.40;;;;;;;31.34;35.25;99222.50;7390506;19;20006;-81
2023/04/06 04:34:46;;;;;;;0.20;0.20;;;;;;;31.33;35.48;99226.00;7394336;19;20417;-81
2023/04/06 04:37:23;;;;;;;0.63;0.52;;;;;;;31.35;35.40;99224.00;7389431;19;20028;-81
2023/04/06 04:39:53;;;;;;;0.40;0.40;;;;;;;31.29;35.75;99217.16;7390606;19;20066;-82
2023/04/06 04:42:19;;;;;;;0.20;0.20;;;;;;;31.56;35.27;99227.97;7390265;19;20014;-81
2023/04/06 04:44:50;;;;;;;;;;;;;;;31.71;34.95;99221.59;7391682;19;20031;-81
2023/04/06 04:47:26;;;;;;;0.10;0.10;;;;;;;31.60;35.25;99216.69;7391290;19;19933;-81
2023/04/06 04:49:52;;;;;;;0.43;0.13;;;;;;;31.56;35.32;99227.97;7390504;19;20476;-81
2023/04/06 04:52:22;;;;;;;0.38;0.32;;;;;;;31.53;35.33;99229.28;7391513;19;20473;-82
2023/04/06 04:54:58;;;;;;;0.55;0.32;;;;;;;31.55;35.13;99233.00;7390459;19;20010;-81
2023/04/06 04:57:27;;;;;;;0.10;0.10;;;;;;;31.47;35.12;99226.06;7390893;19;20022;-81
2023/04/06 04:59:54;;;;;;;0.17;0.17;;;;;;;31.40;35.13;99225.72;7390847;19;20015;-81
2023/04/06 05:02:20;;;;;;;0.95;0.40;;;;;;;31.31;35.22;99218.03;7390114;19;20014;-81
2023/04/06 05:05:13;;;;;;;2.55;0.50;;;;;;;31.28;35.02;99225.03;7395231;19;20022;-81
2023/04/06 05:07:40;;;;;;;1.38;0.47;;;;;;;31.18;35.23;99218.75;7391717;19;20018;-81
2023/04/06 05:10:11;;;;;;;0.20;0.20;;;;;;;31.13;35.38;99222.75;7393849;19;20014;-81
2023/04/06 05:12:46;;;;;;;0.65;0.52;;;;;;;31.08;35.57;99215.28;7390185;19;20484;-80
2023/04/06 05:15:12;;;;;;;0.40;0.40;;;;;;;31.18;35.55;99221.63;7389445;19;20014;-81
2023/04/06 05:17:39;;;;;;;0.65;0.20;;;;;;;31.24;35.28;99221.19;7390122;19;20011;-81
2023/04/06 05:20:07;;;;;;;2.30;0.80;;;;;;;31.39;35.46;99221.34;7389002;19;20703;-81
2023/04/06 05:22:42;;;;;;;0.10;0.10;;;;;;;31.33;35.56;99231.78;7390532;19;20010;-81
2023/04/06 05:25:10;;;;;;;1.20;0.68;;;;;;;31.33;35.35;99226.75;7390590;19;20019;-81
2023/04/06 05:27:38;;;;;;;1.00;0.52;;;;;;;31.32;35.23;99219.50;7390105;19;20025;-81
2023/04/06 05:30:09;;;;;;;2.88;0.28;;;;;;;31.32;34.98;99236.78;7389067;19;20015;-81
2023/04/06 05:32:42;;;;;;;1.10;0.30;;;;;;;31.48;35.17;99236.19;7390923;19;20021;-81
2023/04/06 05:35:09;;;;;;;0.57;0.30;;;;;;;31.51;35.27;99237.81;7395264;19;20006;-81
2023/04/06 05:37:35;;;;;;;1.55;0.63;;;;;;;31.54;35.21;99242.25;7392422;19;20018;-80
2023/04/06 05:40:02;;;;;;;1.00;0.70;;;;;;;31.52;35.11;99239.28;7392632;19;20018;-81
2023/04/06 05:42:39;;;;;;;2.10;1.35;;;;;;;31.33;35.22;99229.66;7392328;19;20052;-81
2023/04/06 05:45:07;;;;;;;1.15;0.45;;;;;;;31.24;35.19;99239.22;7390581;19;20338;-81
2023/04/06 05:47:33;;;;;;;0.43;0.43;;;;;;;31.15;35.22;99236.50;7389451;19;20566;-81
2023/04/06 05:50:07;;;;;;;2.30;0.70;;;;;;;31.19;35.35;99239.59;7390315;19;20018;-81
2023/04/06 05:52:37;;;;;;;14.15;1.08;;;;;;;31.27;35.46;99240.06;7389003;19;20086;-81
2023/04/06 05:55:04;;;;;;;3.22;1.15;;;;;;;31.17;35.25;99251.75;7388393;19;20023;-80
2023/04/06 05:57:31;;;;;;;3.13;0.50;;;;;;;30.91;35.61;99264.66;7387668;19;20014;-80
2023/04/06 05:59:57;;;;;;;1.70;1.23;;;;;;;31.03;35.49;99255.97;7387625;19;20021;-81
2023/04/06 06:02:30;;;;;;;6.32;1.60;;;;;;;31.65;34.88;99259.47;7389330;19;20503;-80
2023/04/06 06:04:57;;;;;;;1.58;0.88;;;;;;;31.82;34.62;99266.81;7392864;19;20014;-80
2023/04/06 06:07:25;;;;;;;3.88;1.40;;;;;;;31.84;34.44;99269.81;7389244;19;20023;-82
2023/04/06 06:09:59;;;;;;;1.95;1.42;;;;;;;31.84;34.15;99272.69;7391250;19;20018;-81
2023/04/06 06:12:32;;;;;;;6.90;2.30;;;;;;;31.59;33.98;99278.53;7388365;19;20019;-80
2023/04/06 06:15:00;;;;;;;4.00;1.35;;;;;;;31.48;34.23;99279.38;7387890;19;20075;-80
2023/04/06 06:17:28;;;;;;;10.57;1.63;;;;;;;31.45;34.63;99277.78;7388228;19;20078;-81
2023/04/06 06:19:55;;;;;;;2.50;1.00;;;;;;;31.15;35.03;99283.31;7388916;19;20011;-82
2023/04/06 06:22:21;;;;;;;0.85;0.85;;;;;;;28.45;37.49;99280.81;7388092;19;20488;-81
2023/04/06 06:24:47;;;;;;;11.70;1.38;;;;;;;27.13;40.28;99291.47;7389557;19;20020;-80
2023/04/06 06:27:16;;;;;;;1.75;1.08;;;;;;;27.15;40.34;99288.75;7388492;19;20015;-79
2023/04/06 06:29:42;;;;;;;1.50;1.40;;;;;;;25.00;45.38;99287.84;7390569;19;20015;-80
2023/04/06 06:32:08;;;;;;;3.25;1.30;;;;;;;28.43;39.52;99285.66;7389004;19;20097;-80
2023/04/06 06:34:36;;;;;;;14.80;2.17;;;;;;;28.91;38.83;99285.28;7393929;19;20014;-79
2023/04/06 06:37:05;;;;;;;4.28;0.73;;;;;;;28.41;38.98;99300.56;7391784;19;20028;-78
2023/04/06 06:39:32;;;;;;;1.48;1.38;;;;;;;28.06;39.70;99298.84;7394291;19;20025;-79
2023/04/06 06:42:00;;;;;;;5.55;2.47;;;;;;;28.32;39.00;99309.25;7394483;19;20018;-80
2023/04/06 06:44:43;;;;;;;1.20;1.00;;;;;;;28.09;39.13;99306.97;7394606;19;20025;-79
2023/04/06 06:47:10;;;;;;;8.00;2.05;;;;;;;28.76;38.34;99323.72;7394148;19;20060;-78
2023/04/06 06:49:36;;;;;;;2.70;1.10;;;;;;;30.11;36.43;99317.31;7394306;19;20010;-79
2023/04/06 06:52:02;;;;;;;1.95;0.68;;;;;;;30.28;35.74;99328.41;7396254;19;20014;-79
2023/04/06 06:54:29;;;;;;;3.35;1.45;;;;;;;30.25;35.77;99326.81;7394664;19;20033;-79
2023/04/06 06:56:55;;;;;;;1.08;0.90;;;;;;;30.49;35.50;99334.03;7392361;19;20070;-79
2023/04/06 06:59:22;;;;;;;0.95;0.82;;;;;;;30.34;35.73;99335.31;7393568;19;20014;-79
2023/04/06 07:01:50;;;;;;;2.58;1.02;;;;;;;30.52;35.46;99344.28;7392787;19;20017;-78
2023/04/06 07:04:16;;;;;;;1.33;0.93;;;;;;;30.95;34.88;99345.41;7394771;19;20022;-78
2023/04/06 07:06:42;;;;;;;1.80;1.02;;;;;;;31.18;34.68;99347.47;7393488;19;20365;-79
2023/04/06 07:09:08;;;;;;;3.35;0.43;;;;;;;31.21;34.34;99343.31;7397263;19;20477;-78
2023/04/06 07:11:34;;;;;;;0.60;0.60;;;;;;;31.40;33.96;99340.84;7394799;19;20025;-78
2023/04/06 07:14:00;;;;;;;2.20;0.40;;;;;;;31.61;34.01;99339.13;7396391;19;20010;-78
2023/04/06 07:16:27;;;;;;;1.65;1.10;;;;;;;31.59;33.66;99331.13;7391438;19;20041;-79
2023/04/06 07:18:54;;;;;;;0.82;0.82;;;;;;;31.59;33.65;99336.88;7393231;19;20019;-79
2023/04/06 07:21:20;;;;;;;0.50;0.32;;;;;;;31.63;33.58;99333.47;7394544;19;20026;-79
2023/04/06 07:23:47;;;;;;;1.95;1.17;;;;;;;31.75;33.52;99334.88;7394115;19;20006;-78
2023/04/06 07:26:14;;;;;;;2.05;0.77;;;;;;;31.93;33.40;99335.13;7393778;19;20021;-78
2023/04/06 07:28:41;;;;;;;1.55;0.52;;;;;;;32.00;33.43;99334.09;7394573;19;20039;-78
2023/04/06 07:31:08;;;;;;;0.32;0.32;;;;;;;31.96;33.46;99328.13;7391919;19;20022;-78
2023/04/06 07:33:34;;;;;;;2.70;0.70;;;;;;;31.88;33.45;99333.41;7394836;19;20361;-78
2023/04/06 07:36:01;;;;;;;3.22;0.85;;;;;;;31.92;33.80;99336.50;7392338;19;20085;-79
2023/04/06 07:38:27;;;;;;;0.38;0.38;;;;;;;31.78;33.45;99336.50;7392565;19;20014;-78
2023/04/06 07:40:54;;;;;;;2.38;0.55;;;;;;;31.70;33.53;99343.94;7392802;19;20586;-79
2023/04/06 07:43:20;;;;;;;9.98;0.98;;;;;;;31.48;33.63;99346.34;7394317;19;20010;-79
2023/04/06 07:45:46;;;;;;;2.80;0.75;;;;;;;31.32;33.80;99348.25;7390834;19;20030;-78
2023/04/06 07:48:16;;;;;;;0.35;0.35;;;;;;;31.55;33.84;99359.69;7392886;19;20018;-78
2023/04/06 07:50:42;;;;;;;4.05;1.08;;;;;;;31.65;33.29;99359.50;7392702;19;20018;-79
2023/04/06 07:53:09;;;;;;;0.60;0.38;;;;;;;31.64;33.38;99352.25;7393209;19;20018;-79
2023/04/06 07:55:37;;;;;;;4.68;0.90;;;;;;;31.44;33.60;99349.00;7392392;19;20074;-79
2023/04/06 07:58:03;;;;;;;9.82;0.57;;;;;;;31.35;33.35;99352.75;7392563;19;20025;-80
2023/04/06 08:00:30;;;;;;;1.58;1.45;;;;;;;31.11;33.54;99354.25;7394037;19;20018;-81
2023/04/06 08:02:56;;;;;;;2.20;0.40;;;;;;;31.00;33.65;99341.41;7394007;19;20023;-82
2023/04/06 08:05:22;;;;;;;0.95;0.20;;;;;;;31.19;33.10;99355.47;7394018;19;20014;-82
2023/04/06 08:07:48;;;;;;;2.58;1.40;;;;;;;31.51;33.36;99365.22;7394988;19;20018;-82
2023/04/06 08:10:14;;;;;;;1.38;0.60;;;;;;;31.80;33.08;99362.53;7396313;19;20419;-82
2023/04/06 08:12:41;;;;;;;1.60;0.75;;;;;;;31.87;32.38;99363.59;7392925;19;20014;-82
2023/04/06 08:15:07;;;;;;;2.08;0.20;;;;;;;31.77;32.05;99363.78;7391012;19;20022;-82
2023/04/06 08:17:33;;;;;;;14.80;1.45;;;;;;;31.82;31.93;99361.88;7390786;19;20053;-82
2023/04/06 08:20:00;;;;;;;2.20;0.90;;;;;;;31.71;31.91;99371.34;7392154;19;20122;-82
2023/04/06 08:22:26;;;;;;;1.83;0.28;;;;;;;31.54;31.65;99366.06;7393453;19;20110;-82
2023/04/06 08:24:53;;;;;;;2.38;1.42;;;;;;;31.41;31.98;99371.16;7392195;19;20036;-81
2023/04/06 08:27:19;;;;;;;0.45;0.32;;;;;;;31.56;31.64;99369.06;7392111;19;20018;-82
2023/04/06 08:29:45;;;;;;;2.53;0.85;;;;;;;31.21;31.67;99374.97;7392948;19;20018;-81
2023/04/06 08:32:11;;;;;;;1.30;0.90;;;;;;;31.53;31.31;99373.22;7392540;19;20018;-86
2023/04/06 08:34:37;;;;;;;8.80;0.77;;;;;;;31.47;31.15;99370.00;7397526;19;20146;-82
2023/04/06 08:37:04;;;;;;;4.38;0.63;;;;;;;31.59;31.12;99370.66;7390782;19;20025;-82
2023/04/06 08:39:30;;;;;;;7.43;1.00;;;;;;;31.55;31.11;99379.09;7391999;19;20015;-82
2023/04/06 08:41:57;;;;;;;0.20;0.20;;;;;;;31.48;31.25;99377.25;7392562;19;20014;-82
2023/04/06 08:44:24;;;;;;;7.07;0.68;;;;;;;31.54;31.05;99378.34;7392023;19;20010;-81
2023/04/06 08:46:51;;;;;;;5.88;0.77;;;;;;;31.55;31.42;99370.44;7391395;19;20018;-81
2023/04/06 08:49:18;;;;;;;2.53;1.10;;;;;;;31.69;31.21;99379.88;7391860;19;20011;-81
2023/04/06 08:51:44;;;;;;;0.10;0.10;;;;;;;31.64;31.48;99386.81;7393185;19;20023;-82
2023/04/06 08:54:10;;;;;;;0.88;0.52;;;;;;;31.60;31.49;99384.44;7393300;19;20022;-82
2023/04/06 08:56:40;;;;;;;0.77;0.25;;;;;;;31.68;31.13;99375.50;7389316;19;20018;-83
2023/04/06 08:59:07;;;;;;;0.30;0.30;;;;;;;31.91;31.16;99386.88;7391579;19;20015;-82
2023/04/06 09:01:40;;;;;;;0.73;0.70;;;;;;;32.06;31.14;99381.25;7390823;19;20355;-82
2023/04/06 09:04:10;;;;;;;0.45;0.15;;;;;;;32.03;30.86;99379.66;7392439;19;20039;-83
2023/04/06 09:06:37;;;;;;;0.35;0.35;;;;;;;32.11;31.00;99379.34;7389524;19;20043;-83
2023/04/06 09:09:04;;;;;;;6.80;0.70;;;;;;;32.54;30.72;99383.13;7390767;19;20082;-82
2023/04/06 09:11:45;;;;;;;3.70;0.65;;;;;;;32.70;30.73;99380.34;7389916;19;20018;-83
2023/04/06 09:14:11;;;;;;;6.80;0.52;;;;;;;32.51;30.89;99378.63;7392777;19;20018;-83
2023/04/06 09:16:45;;;;;;;0.40;0.38;;;;;;;31.55;31.70;99387.72;7388790;19;20498;-83
2023/04/06 09:19:14;;;;;;;0.55;0.52;;;;;;;32.47;30.20;99387.09;7388847;19;20531;-83
2023/04/06 09:21:40;;;;;;;0.40;0.40;;;;;;;32.70;30.25;99381.06;7388002;19;20019;-83
2023/04/06 09:24:08;;;;;;;1.75;0.30;;;;;;;32.88;30.31;99390.66;7392877;19;20021;-82
2023/04/06 09:26:45;;;;;;;1.95;1.30;;;;;;;32.90;29.90;99393.66;7392173;19;20031;-83
2023/04/06 09:29:22;;;;;;;6.65;0.73;;;;;;;32.72;29.93;99389.09;7390102;19;20037;-82
2023/04/06 09:31:48;;;;;;;2.25;0.55;;;;;;;32.11;30.99;99373.59;7391270;19;20017;-82
2023/04/06 09:34:23;;;;;;;3.70;0.43;;;;;;;32.04;30.94;99392.69;7392769;19;20010;-82
2023/04/06 09:36:49;;;;;;;0.20;0.20;;;;;;;31.97;30.95;99387.22;7387549;19;20022;-83
2023/04/06 09:39:21;;;;;;;0.70;0.50;;;;;;;31.94;31.30;99388.47;7390840;19;20010;-83
2023/04/06 09:41:50;;;;;;;1.13;0.60;;;;;;;31.88;31.44;99388.88;7391414;19;20032;-84
2023/04/06 09:44:16;;;;;;;8.15;1.25;;;;;;;31.30;31.72;99388.44;7393204;19;20022;-84
2023/04/06 09:46:45;;;;;;;2.15;0.43;;;;;;;31.38;31.25;99403.31;7391314;19;20478;-84
2023/04/06 09:49:12;;;;;;;8.70;1.55;;;;;;;31.32;31.39;99400.81;7390259;19;20470;-83
2023/04/06 09:51:41;;;;;;;0.20;0.20;;;;;;;31.43;31.55;99402.94;7389820;19;20010;-84
2023/04/06 09:54:09;;;;;;;3.80;0.28;;;;;;;31.06;31.23;99402.16;7391918;19;20014;-84
2023/04/06 09:56:47;;;;;;;0.22;0.22;;;;;;;31.35;31.25;99408.19;7388193;19;20571;-84
2023/04/06 09:59:21;;;;;;;0.43;0.10;;;;;;;31.45;30.80;99407.31;7388343;19;20054;-84
2023/04/06 10:01:50;;;;;;;0.50;0.50;;;;;;;31.53;30.56;99402.00;7391617;19;20014;-83
2023/04/06 10:04:25;;;;;;;0.20;0.20;;;;;;;31.58;30.29;99409.50;7392583;19;20030;-84
2023/04/06 10:06:52;;;;;;;0.20;0.20;;;;;;;31.65;29.63;99411.31;7389272;19;20018;-83
2023/04/06 10:09:24;;;;;;;3.92;0.55;;;;;;;31.72;29.83;99421.81;7395365;19;20020;-84
2023/04/06 10:11:51;;;;;;;1.15;0.32;;;;;;;31.64;29.80;99430.72;7398585;19;20022;-84
2023/04/06 10:14:17;;;;;;;0.20;0.20;;;;;;;31.83;29.29;99423.88;7399907;19;20022;-84
2023/04/06 10:16:44;;;;;;;3.40;0.70;;;;;;;31.69;29.10;99417.31;7395127;19;20018;-84
2023/04/06 10:19:21;;;;;;;0.10;0.10;;;;;;;31.07;29.29;99426.69;7396831;19;20011;-85
2023/04/06 10:21:53;;;;;;;12.75;1.15;;;;;;;31.34;29.96;99429.72;7396420;19;20035;-85
2023/04/06 10:24:19;;;;;;;2.28;0.65;;;;;;;31.77;29.91;99432.19;7399497;19;20114;-85
2023/04/06 10:27:02;;;;;;;2.28;1.05;;;;;;;31.84;29.63;99437.63;7396332;19;20025;-85
2023/04/06 10:29:40;;;;;;;22.13;1.65;;;;;;;32.01;29.48;99439.31;7395355;19;20465;-85
2023/04/06 10:32:06;;;;;;;1.23;0.50;;;;;;;31.81;29.18;99435.28;7393794;19;20359;-84
2023/04/06 10:34:36;;;;;;;4.97;0.80;;;;;;;31.62;29.62;99450.03;7399315;19;20516;-85
2023/04/06 10:37:13;;;;;;;0.75;0.60;;;;;;;31.31;28.77;99448.25;7395503;19;20022;-85
2023/04/06 10:39:57;;;;;;;2.45;0.52;;;;;;;31.36;28.96;99449.97;7395183;19;20022;-85
2023/04/06 10:42:38;;;;;;;1.08;0.50;;;;;;;31.42;29.57;99443.88;7394447;19;20017;-85
2023/04/06 10:45:07;;;;;;;3.20;0.43;;;;;;;31.10;29.09;99454.19;7394599;19;20038;-84
2023/04/06 10:47:42;;;;;;;10.38;1.25;;;;;;;30.83;29.97;99456.84;7394656;19;20018;-84
2023/04/06 10:50:11;;;;;;;2.47;1.20;;;;;;;32.30;28.04;99458.91;7396111;19;20086;-84
2023/04/06 10:52:37;;;;;;;0.43;0.35;;;;;;;32.83;28.10;99452.44;7395376;19;20528;-84
2023/04/06 10:55:04;;;;;;;0.20;0.10;;;;;;;33.33;27.93;99470.91;7394158;19;20456;-85
2023/04/06 10:57:32;;;;;;;0.10;0.10;;;;;;;33.10;27.85;99456.69;7393236;19;20044;-85
2023/04/06 10:59:58;;;;;;;1.83;0.98;;;;;;;32.83;27.86;99458.19;7393852;19;20014;-84
2023/04/06 11:02:25;;;;;;;0.38;0.30;;;;;;;32.23;27.65;99452.06;7396021;19;20010;-84
2023/04/06 11:04:57;;;;;;;0.10;0.10;;;;;;;32.12;27.68;99464.41;7398015;19;20473;-85
2023/04/06 11:07:27;;;;;;;0.73;0.25;;;;;;;32.06;27.97;99467.72;7396691;19;20018;-84
2023/04/06 11:09:53;;;;;;;0.93;0.43;;;;;;;32.06;28.15;99466.97;7394703;19;20417;-81
2023/04/06 11:12:24;;;;;;;0.55;0.20;;;;;;;32.45;28.26;99467.69;7393960;19;20270;-82
2023/04/06 11:15:04;;;;;;;12.07;0.45;;;;;;;32.88;27.38;99471.44;7395768;19;20011;-82
2023/04/06 11:17:35;;;;;;;1.95;0.20;;;;;;;33.08;27.21;99471.03;7390118;19;20011;-82
2023/04/06 11:20:04;;;;;;;0.32;0.32;;;;;;;32.45;26.77;99473.44;7394043;19;20015;-85
2023/04/06 11:22:31;;;;;;;1.00;0.10;;;;;;;32.82;26.85;99468.25;7392897;19;20031;-84
2023/04/06 11:25:07;;;;;;;0.20;0.20;;;;;;;33.05;27.23;99469.44;7396005;19;20381;-84
2023/04/06 11:27:34;;;;;;;0.10;0.10;;;;;;;33.52;26.60;99464.66;7396013;19;20018;-84
2023/04/06 11:30:02;;;;;;;0.47;0.47;;;;;;;34.01;26.84;99470.66;7393926;19;20018;-84
2023/04/06 11:32:29;;;;;;;0.10;0.10;;;;;;;34.21;26.90;99474.53;7394408;19;20052;-84
2023/04/06 11:34:57;;;;;;;0.10;0.10;;;;;;;34.05;26.06;99476.63;7398267;19;20037;-85
2023/04/06 11:37:27;;;;;;;0.50;0.17;;;;;;;33.70;26.18;99477.09;7392288;19;20018;-84
2023/04/06 11:39:55;;;;;;;0.17;0.13;;;;;;;33.20;26.25;99483.22;7393963;19;20018;-84
2023/04/06 11:42:29;;;;;;;4.50;0.45;;;;;;;33.17;26.77;99484.50;7393792;19;20010;-84